• Join FlightAware (Why Join?)
  • Login
  • US Flag 
10:16PM EDT


 

Airport Tracker/Info


-or-


 

Live Flight TrackerFlight Track Log ✈ VH-SMM ✈ 08-Nov-2013 ✈ YBUD / BDB - YLIS / LSY

Flight Track Log - Related Links

Times and Time Zones

All times are in EST time to prevent confusion due to time zone crossing. See the VH-SMM flight status page for this flight to view local times or setup timezone preferences in your user account.

Time Position Orientation Groundspeed Altitude Reporting Facility
EST Latitude Longitude Course Direction KTS MPH feet Rate Location/Type
03:44PM -26.5459 152.6292 172° South 1,500  Level Aus ATC (Calculated)
03:45PM -26.6958 152.6529 173° South 123 142 4,600 1,440 Climbing Aus ATC (RADAR)
03:46PM -26.7101 152.6549 173° South 124 143 4,700 300 Climbing Aus ATC (RADAR)
03:46PM -26.7290 152.6603 166° South 121 139 4,900 300 Climbing Aus ATC (RADAR)
03:47PM -26.7510 152.6644 171° South 121 139 5,100 300 Climbing Aus ATC (RADAR)
03:48PM -26.7714 152.6665 175° South 124 143 5,300 360 Climbing Aus ATC (RADAR)
03:48PM -26.7881 152.6701 169° South 123 142 5,500 300 Climbing Aus ATC (RADAR)
03:49PM -26.8052 152.6742 168° South 125 144 5,600  Climbing Aus ATC (RADAR)
03:50PM -26.8575 152.6855 169° South 138 159 5,500 -60 Descending Aus ATC (RADAR)
03:50PM -26.8705 152.6881 170° South 141 162 5,500  Level Aus ATC (RADAR)
03:51PM -26.8862 152.6917 169° South 139 160 5,500  Level Aus ATC (RADAR)
03:51PM -26.9084 152.6967 169° South 138 159 5,500  Level Aus ATC (RADAR)
03:52PM -26.9370 152.7029 169° South 139 160 5,500  Level Aus ATC (RADAR)
03:53PM -26.9591 152.7076 169° South 139 160 5,500  Level Aus ATC (RADAR)
03:53PM -26.9811 152.7128 168° South 137 158 5,500 -120 Level Aus ATC (RADAR)
03:54PM -26.9999 152.7172 168° South 139 160 5,400  Descending Aus ATC (RADAR)
03:55PM -27.0405 152.7263 169° South 136 157 5,500 60 Climbing Aus ATC (RADAR)
03:55PM -27.0531 152.7292 168° South 138 159 5,500  Level Aus ATC (RADAR)
03:56PM -27.0685 152.7332 167° South 135 155 5,500  Level Aus ATC (RADAR)
03:56PM -27.0904 152.7386 168° South 137 158 5,500  Level Aus ATC (RADAR)
03:57PM -27.1156 152.7454 166° South 138 159 5,500  Level Aus ATC (RADAR)
03:57PM -27.1371 152.7531 162° South 139 160 5,500  Level Aus ATC (RADAR)
03:58PM -27.1587 152.7602 164° South 138 159 5,500  Level Aus ATC (RADAR)
03:58PM -27.1775 152.7664 164° South 139 160 5,500  Level Aus ATC (RADAR)
03:59PM -27.1993 152.7731 165° South 138 159 5,500  Level Aus ATC (RADAR)
04:00PM -27.2472 152.7795 173° South 138 159 5,500  Level Aus ATC (RADAR)
04:01PM -27.2634 152.7818 173° South 139 160 5,500  Level Aus ATC (RADAR)
04:01PM -27.2858 152.7860 170° South 140 161 5,500  Level Aus ATC (RADAR)
04:02PM -27.3108 152.7926 167° South 139 160 5,500  Level Aus ATC (RADAR)
04:03PM -27.3328 152.7991 165° South 140 161 5,500  Level Aus ATC (RADAR)
04:03PM -27.3549 152.8046 168° South 139 160 5,500  Level Aus ATC (RADAR)
04:04PM -27.3740 152.8098 166° South 140 161 5,500  Level Aus ATC (RADAR)
04:04PM -27.3961 152.8156 167° South 140 161 5,500  Level Aus ATC (RADAR)
04:05PM -27.4373 152.8265 167° South 139 160 5,500  Level Aus ATC (RADAR)
04:06PM -27.4495 152.8301 165° South 137 158 5,500  Level Aus ATC (RADAR)
04:06PM -27.4714 152.8364 166° South 139 160 5,500  Level Aus ATC (RADAR)
04:07PM -27.4996 152.8449 165° South 138 159 5,500  Level Aus ATC (RADAR)
04:08PM -27.5211 152.8529 162° South 139 160 5,500  Level Aus ATC (RADAR)
04:08PM -27.5431 152.8597 165° South 140 161 5,500  Level Aus ATC (RADAR)
04:09PM -27.5617 152.8660 163° South 139 160 5,500  Level Aus ATC (RADAR)
04:09PM -27.5833 152.8731 164° South 138 159 5,500  Level Aus ATC (RADAR)
04:11PM -27.6465 152.8938 164° South 142 163 5,500  Level Aus ATC (RADAR)
04:11PM -27.6558 152.8970 163° South 140 161 5,500 -120 Level Aus ATC (RADAR)
04:12PM -27.6778 152.9042 164° South 141 162 5,400 -120 Descending Aus ATC (RADAR)
04:12PM -27.7031 152.9124 164° South 140 161 5,400 60 Level Aus ATC (RADAR)
04:13PM -27.7250 152.9197 163° South 139 160 5,500 60 Climbing Aus ATC (RADAR)
04:13PM -27.7462 152.9274 162° South 137 158 5,500  Level Aus ATC (RADAR)
04:14PM -27.7647 152.9339 163° South 137 158 5,500  Level Aus ATC (RADAR)
04:15PM -27.8086 152.9477 164° South 140 161 5,500  Level Aus ATC (RADAR)
04:16PM -27.8242 152.9527 164° South 139 160 5,500  Level Aus ATC (RADAR)
04:16PM -27.8399 152.9577 164° South 139 160 5,500  Level Aus ATC (RADAR)
04:17PM -27.8617 152.9651 163° South 139 160 5,500  Level Aus ATC (RADAR)
04:17PM -27.8870 152.9731 164° South 140 161 5,500  Level Aus ATC (RADAR)
04:21PM -28.0045 153.0083 165° South -1,680 Descending Aus ATC (Calculated)
04:23PM -28.0795 153.0309 165° South  Level FlightAware Approximate
04:24PM -28.1180 153.0425 165° South  Level FlightAware Approximate
04:25PM -28.1564 153.0541 165° South  Level FlightAware Approximate
04:26PM -28.1949 153.0657 165° South  Level FlightAware Approximate
04:27PM -28.2334 153.0773 165° South  Level FlightAware Approximate
04:28PM -28.2718 153.0889 165° South  Level FlightAware Approximate
04:29PM -28.3103 153.1005 165° South  Level FlightAware Approximate
04:30PM -28.3487 153.1122 165° South  Level FlightAware Approximate
04:31PM -28.3872 153.1238 165° South  Level FlightAware Approximate
04:32PM -28.4256 153.1355 165° South  Level FlightAware Approximate
04:33PM -28.4641 153.1471 165° South  Level FlightAware Approximate
04:34PM -28.5025 153.1588 165° South  Level FlightAware Approximate
04:35PM -28.5410 153.1705 165° South  Level FlightAware Approximate
04:35PM -28.5698 153.1792 165° South  Level Aus ATC (Calculated)
04:36PM -28.5794 153.1821 165° South  Level FlightAware Approximate
04:37PM -28.6140 153.1927 165° South  Level FlightAware Approximate
04:38PM -28.6525 153.2044 165° South  Level FlightAware Approximate
04:39PM -28.6909 153.2161 165° South  Level FlightAware Approximate
04:40PM -28.7294 153.2278 165° South  Level FlightAware Approximate
04:41PM -28.7678 153.2395 165° South  Level FlightAware Approximate
04:42PM -28.8062 153.2513 165° South  Level FlightAware Approximate
04:43PM -28.8303 153.2600 165° South  Level Estimated
04:44PM -28.8303 153.2600 329° Northwest  Level Estimated
04:45PM -28.8303 153.2600 329° Northwest  Level Estimated
04:46PM -28.8267 153.2575 165° South  Level FlightAware Approximate
04:47PM -28.8303 153.2600 165° South  Level Estimated
04:48PM -28.8267 153.2575 165° South  Level FlightAware Approximate